Lucerne, Louisiana
Current Conditions -  °F | °C
As of 9:35 AM on Monday 22 Dec 2014 (Local Time) from KHEZ Reporting Station
Overcast Overcast  
Wind Chill: 57°   Ceiling: 400
Heat Index: 57°   Visibility: 4mi
Dew Point: 55°   Wind: 6mph
Humidity: 94%   Direction: 160°SSE
Pressure: 29.81"   Gusts: NA
Location:  31.5712°N, 91.5148°W
Report Text: KHEZ 221535Z AUTO 16005KT 4SM OVC004 14/13 A2981 RMK AO1
Loading
Personal Weather Stations






























Interactive Weather Map New forecast layout! Learn more

10-Day Weather Forecast

Advertisements
Track Severe Weather on mobile